createdAt,value
2022-10-12T00:02:12.888Z,7.48
2022-10-12T00:04:44.961Z,7.42
2022-10-12T00:07:17.598Z,7.45
2022-10-12T00:09:49.652Z,7.48
2022-10-12T00:12:21.964Z,7.52
2022-10-12T00:14:53.876Z,7.32
2022-10-12T00:17:26.117Z,7.30
2022-10-12T00:19:58.530Z,7.43
2022-10-12T00:22:30.948Z,7.53
2022-10-12T00:25:02.651Z,7.52
2022-10-12T00:27:35.957Z,7.37
2022-10-12T00:30:09.802Z,7.29
2022-10-12T00:32:41.882Z,7.26
2022-10-12T00:35:13.996Z,7.49
2022-10-12T00:37:46.076Z,7.39
2022-10-12T00:40:17.961Z,7.45
2022-10-12T00:42:50.117Z,7.41
2022-10-12T00:45:22.114Z,7.19
2022-10-12T00:47:58.003Z,7.24
2022-10-12T00:50:32.264Z,7.41
2022-10-12T00:53:09.127Z,7.45
2022-10-12T00:55:46.436Z,7.33
2022-10-12T00:58:19.971Z,7.40
2022-10-12T01:00:52.197Z,7.51
2022-10-12T01:03:25.751Z,7.54
2022-10-12T01:05:58.614Z,7.29
2022-10-12T01:08:31.555Z,7.26
2022-10-12T01:11:02.212Z,7.23
2022-10-12T01:13:35.056Z,7.12
2022-10-12T01:16:14.939Z,6.95
2022-10-12T01:18:51.502Z,6.89
2022-10-12T01:21:24.625Z,6.93
2022-10-12T01:24:18.502Z,6.92
2022-10-12T01:27:08.210Z,6.84
2022-10-12T01:30:23.904Z,6.79
2022-10-12T01:33:16.146Z,6.80
2022-10-12T01:35:55.573Z,6.76
2022-10-12T01:38:36.251Z,6.65
2022-10-12T01:41:14.014Z,6.66
2022-10-12T01:43:47.440Z,6.67
2022-10-12T01:46:44.896Z,6.59
2022-10-12T01:49:20.365Z,6.57
2022-10-12T01:52:24.335Z,6.76
2022-10-12T01:55:18.482Z,6.83
2022-10-12T01:58:13.247Z,6.60
2022-10-12T02:00:51.172Z,6.65
2022-10-12T02:03:29.316Z,6.80
2022-10-12T02:06:05.916Z,6.94
2022-10-12T02:08:43.445Z,6.85
2022-10-12T02:11:17.792Z,6.61
2022-10-12T02:13:53.832Z,6.69
2022-10-12T02:16:29.902Z,6.44
2022-10-12T02:19:03.953Z,6.39
2022-10-12T02:21:37.833Z,6.60
2022-10-12T02:24:11.174Z,6.46
2022-10-12T02:26:46.725Z,6.32
2022-10-12T02:29:23.197Z,6.40
2022-10-12T02:32:02.138Z,6.61
2022-10-12T02:34:38.249Z,6.53
2022-10-12T02:37:16.717Z,6.32
2022-10-12T02:39:54.692Z,6.36
2022-10-12T02:42:41.840Z,6.37
2022-10-12T02:45:25.382Z,6.18
2022-10-12T02:47:59.547Z,6.27
2022-10-12T02:50:34.525Z,6.19
2022-10-12T02:53:08.593Z,6.21
2022-10-12T02:55:50.701Z,6.19
2022-10-12T02:58:23.315Z,6.19
2022-10-12T03:00:53.606Z,6.24
2022-10-12T03:03:25.574Z,6.17
2022-10-12T03:05:58.117Z,6.01
2022-10-12T03:08:28.442Z,5.97
2022-10-12T03:11:05.505Z,6.14
2022-10-12T03:13:38.499Z,6.24
2022-10-12T03:16:12.473Z,6.30
2022-10-12T03:18:44.712Z,6.31
2022-10-12T03:21:18.210Z,6.18
2022-10-12T03:23:49.896Z,6.19
2022-10-12T03:26:22.364Z,6.14
2022-10-12T03:28:55.693Z,6.07
2022-10-12T03:31:27.478Z,6.31
2022-10-12T03:33:59.193Z,6.36
2022-10-12T03:36:31.461Z,6.42
2022-10-12T03:39:04.407Z,6.52
2022-10-12T03:41:36.692Z,6.49
2022-10-12T03:44:07.767Z,6.49
2022-10-12T03:46:39.446Z,6.48
2022-10-12T03:49:11.360Z,6.47
2022-10-12T03:51:43.156Z,6.55
2022-10-12T03:54:14.952Z,6.61
2022-10-12T03:56:46.557Z,6.56
2022-10-12T03:59:18.446Z,6.45
2022-10-12T04:01:50.350Z,6.45
2022-10-12T04:04:22.042Z,6.30
2022-10-12T04:06:53.864Z,6.14
2022-10-12T04:09:25.853Z,6.04
2022-10-12T04:11:57.552Z,6.19
2022-10-12T04:14:30.039Z,6.20
2022-10-12T04:17:02.340Z,6.27
2022-10-12T04:19:35.356Z,6.31
2022-10-12T04:22:05.375Z,6.31
2022-10-12T04:24:37.742Z,6.30
2022-10-12T04:27:09.575Z,6.20
2022-10-12T04:29:41.141Z,6.07
2022-10-12T04:32:13.210Z,5.89
2022-10-12T04:34:45.210Z,5.72
2022-10-12T04:37:16.802Z,5.87
2022-10-12T04:39:48.540Z,6.07
2022-10-12T04:42:20.124Z,6.11
2022-10-12T04:44:52.921Z,6.14
2022-10-12T04:47:23.419Z,6.01
2022-10-12T04:49:55.510Z,5.92
2022-10-12T04:52:27.966Z,5.91
2022-10-12T04:55:00.379Z,5.99
2022-10-12T04:57:32.833Z,6.01
2022-10-12T05:00:05.418Z,6.06
2022-10-12T05:02:38.913Z,6.07
2022-10-12T05:05:11.509Z,5.98
2022-10-12T05:07:43.460Z,5.97
2022-10-12T05:10:15.254Z,5.91
2022-10-12T05:12:46.957Z,5.92
2022-10-12T05:15:20.085Z,6.09
2022-10-12T05:17:52.093Z,6.16
2022-10-12T05:20:23.728Z,6.02
2022-10-12T05:23:01.971Z,5.93
2022-10-12T05:25:36.577Z,5.97
2022-10-12T05:28:09.315Z,5.92
2022-10-12T05:30:39.666Z,5.72
2022-10-12T05:33:11.568Z,5.72
2022-10-12T05:35:47.640Z,5.82
2022-10-12T05:38:20.774Z,5.78
2022-10-12T05:40:56.416Z,6.00
2022-10-12T05:43:31.382Z,6.10
2022-10-12T05:46:03.354Z,6.04
2022-10-12T05:48:37.233Z,6.04
2022-10-12T05:51:09.107Z,6.06
2022-10-12T05:53:40.897Z,6.06
2022-10-12T05:56:13.028Z,6.12
2022-10-12T05:58:45.865Z,6.06
2022-10-12T06:01:18.038Z,6.22
2022-10-12T06:03:50.607Z,6.38
2022-10-12T06:06:22.492Z,6.52
2022-10-12T06:08:54.378Z,6.58
2022-10-12T06:11:26.425Z,6.61
2022-10-12T06:13:58.244Z,6.60
2022-10-12T06:16:29.870Z,6.64
2022-10-12T06:19:01.594Z,6.83
2022-10-12T06:21:34.520Z,6.95
2022-10-12T06:24:08.421Z,6.98
2022-10-12T06:26:40.159Z,7.17
2022-10-12T06:29:13.055Z,7.11
2022-10-12T06:31:47.771Z,7.01
2022-10-12T06:34:23.351Z,7.11
2022-10-12T06:36:59.469Z,7.33
2022-10-12T06:39:33.759Z,7.48
2022-10-12T06:42:08.080Z,7.61
2022-10-12T06:44:40.789Z,7.66
2022-10-12T06:47:12.592Z,7.65
2022-10-12T06:49:44.393Z,7.72
2022-10-12T06:52:16.111Z,7.77
2022-10-12T06:54:47.730Z,7.81
2022-10-12T06:57:19.421Z,7.88
2022-10-12T06:59:51.269Z,7.97
2022-10-12T07:02:23.621Z,8.12
2022-10-12T07:04:55.962Z,8.21
2022-10-12T07:07:27.812Z,8.22
2022-10-12T07:10:00.016Z,8.34
2022-10-12T07:12:32.379Z,8.51
2022-10-12T07:15:04.618Z,8.56
2022-10-12T07:17:36.921Z,8.72
2022-10-12T07:20:10.333Z,8.84
2022-10-12T07:22:42.613Z,8.93
2022-10-12T07:25:15.180Z,9.02
2022-10-12T07:27:49.896Z,9.13
2022-10-12T07:30:21.740Z,9.25
2022-10-12T07:32:54.816Z,9.33
2022-10-12T07:35:27.306Z,9.43
2022-10-12T07:37:59.053Z,9.48
2022-10-12T07:40:31.654Z,9.60
2022-10-12T07:43:17.523Z,9.69
2022-10-12T07:45:49.489Z,9.78
2022-10-12T07:48:22.652Z,9.86
2022-10-12T07:50:54.404Z,9.94
2022-10-12T07:53:26.620Z,10.03
2022-10-12T07:56:03.634Z,10.15
2022-10-12T07:58:36.127Z,10.24
2022-10-12T08:01:10.047Z,10.30
2022-10-12T08:03:41.818Z,10.35
2022-10-12T08:06:17.197Z,10.44
2022-10-12T08:08:49.671Z,10.56
2022-10-12T08:11:21.796Z,10.61
2022-10-12T08:13:53.456Z,10.65
2022-10-12T08:16:25.829Z,10.73
2022-10-12T08:18:57.562Z,10.87
2022-10-12T08:21:29.424Z,10.98
2022-10-12T08:24:01.114Z,11.01
2022-10-12T08:26:33.450Z,11.09
2022-10-12T08:29:08.043Z,11.21
2022-10-12T08:31:40.460Z,11.32
2022-10-12T08:34:12.145Z,11.40
2022-10-12T08:36:43.990Z,11.47
2022-10-12T08:39:18.208Z,11.55
2022-10-12T08:41:59.879Z,11.63
2022-10-12T08:44:43.891Z,11.69
2022-10-12T08:47:21.032Z,11.78
2022-10-12T08:49:55.070Z,11.91
2022-10-12T08:52:32.983Z,12.05
2022-10-12T08:55:17.763Z,12.19
2022-10-12T08:57:50.200Z,12.32
2022-10-12T09:00:22.691Z,12.41
2022-10-12T09:03:07.299Z,12.50
2022-10-12T09:05:46.419Z,12.62
2022-10-12T09:08:28.556Z,12.72
2022-10-12T09:11:11.428Z,12.78
2022-10-12T09:13:48.424Z,12.77
2022-10-12T09:16:25.777Z,12.92
2022-10-12T09:18:59.858Z,12.99
2022-10-12T09:21:34.166Z,13.07
2022-10-12T09:24:13.881Z,13.24
2022-10-12T09:26:47.911Z,13.33
2022-10-12T09:29:28.175Z,13.38
2022-10-12T09:32:22.388Z,13.45
2022-10-12T09:34:54.895Z,13.54
2022-10-12T09:37:30.213Z,13.76
2022-10-12T09:40:03.130Z,13.83
2022-10-12T09:42:35.563Z,14.04
2022-10-12T09:45:18.196Z,14.23
2022-10-12T09:48:13.838Z,14.39
2022-10-12T09:50:49.964Z,14.54
2022-10-12T09:53:30.893Z,14.64
2022-10-12T09:56:09.776Z,14.87
2022-10-12T09:58:54.217Z,15.02
2022-10-12T10:01:31.346Z,15.09
2022-10-12T10:04:18.084Z,15.17
2022-10-12T10:06:50.816Z,15.28
2022-10-12T10:09:39.854Z,15.39
2022-10-12T10:12:25.644Z,15.29
2022-10-12T10:14:59.730Z,15.45
2022-10-12T10:17:33.909Z,15.71
2022-10-12T10:20:22.542Z,15.83
2022-10-12T10:22:54.793Z,16.01
2022-10-12T10:25:27.674Z,16.11
2022-10-12T10:28:23.934Z,16.14
2022-10-12T10:31:03.123Z,16.01
2022-10-12T10:33:37.075Z,16.13
2022-10-12T10:36:20.136Z,16.36
2022-10-12T10:38:55.436Z,16.49
2022-10-12T10:41:32.549Z,16.74
2022-10-12T10:44:05.042Z,16.92
2022-10-12T10:46:39.071Z,16.89
2022-10-12T10:49:24.281Z,17.06
2022-10-12T10:51:59.710Z,17.17
2022-10-12T10:54:34.626Z,17.28
2022-10-12T10:57:12.253Z,17.40
2022-10-12T10:59:52.741Z,17.46
2022-10-12T11:02:35.292Z,17.38
2022-10-12T11:05:14.110Z,17.26
2022-10-12T11:07:51.211Z,17.31
2022-10-12T11:10:32.076Z,17.32
2022-10-12T11:13:08.110Z,17.45
2022-10-12T11:15:44.090Z,17.62
2022-10-12T11:18:20.256Z,17.78
2022-10-12T11:20:57.738Z,17.80
2022-10-12T11:23:39.208Z,17.95
2022-10-12T11:26:18.778Z,17.81
2022-10-12T11:28:50.971Z,17.47
2022-10-12T11:31:28.461Z,17.72
2022-10-12T11:34:08.004Z,17.98
2022-10-12T11:37:14.320Z,18.26
2022-10-12T11:39:42.105Z,18.37
2022-10-12T11:42:22.741Z,17.92
2022-10-12T11:44:56.183Z,17.42
2022-10-12T11:47:37.432Z,17.36
2022-10-12T11:50:25.563Z,17.19
2022-10-12T11:53:01.541Z,17.20
2022-10-12T11:55:47.581Z,17.31
2022-10-12T11:58:36.316Z,17.67
2022-10-12T12:01:30.821Z,17.76
2022-10-12T12:04:48.582Z,18.02
2022-10-12T12:07:44.845Z,17.96
2022-10-12T12:11:04.309Z,17.71
2022-10-12T12:13:36.909Z,17.98
2022-10-12T12:16:31.820Z,18.24
2022-10-12T12:19:42.325Z,18.34
2022-10-12T12:22:18.972Z,18.18
2022-10-12T12:25:04.211Z,18.22
2022-10-12T12:27:41.210Z,17.93
2022-10-12T12:30:28.887Z,18.03
2022-10-12T12:33:03.295Z,18.06
2022-10-12T12:35:40.085Z,17.89
2022-10-12T12:38:21.470Z,17.82
2022-10-12T12:41:15.095Z,18.05
2022-10-12T12:44:04.253Z,18.14
2022-10-12T12:47:43.445Z,17.89
2022-10-12T12:50:26.576Z,17.97
2022-10-12T12:53:06.637Z,18.27
2022-10-12T12:56:06.493Z,18.36
2022-10-12T12:59:08.389Z,18.35
2022-10-12T13:02:02.002Z,18.32
2022-10-12T13:04:50.401Z,18.36
2022-10-12T13:07:54.877Z,18.29
2022-10-12T13:10:38.853Z,17.73
2022-10-12T13:13:36.667Z,18.11
2022-10-12T13:17:09.664Z,18.13
2022-10-12T13:19:21.932Z,17.86
2022-10-12T13:21:56.986Z,18.13
2022-10-12T13:24:32.870Z,17.98
2022-10-12T13:27:14.381Z,18.09
2022-10-12T13:29:51.280Z,18.14
2022-10-12T13:32:33.812Z,18.28
2022-10-12T13:35:14.143Z,18.22
2022-10-12T13:37:46.815Z,18.22
2022-10-12T13:40:33.367Z,18.31
2022-10-12T13:43:26.949Z,18.46
2022-10-12T13:45:59.376Z,18.41
2022-10-12T13:48:58.114Z,18.41
2022-10-12T13:51:27.201Z,18.31
2022-10-12T13:53:59.951Z,18.27
2022-10-12T13:56:32.790Z,17.88
2022-10-12T13:59:07.058Z,17.53
2022-10-12T14:01:53.662Z,17.59
2022-10-12T14:04:28.304Z,17.38
2022-10-12T14:07:04.895Z,17.25
2022-10-12T14:09:45.586Z,17.47
2022-10-12T14:12:22.997Z,17.42
2022-10-12T14:14:58.117Z,17.30
2022-10-12T14:17:30.501Z,17.05
2022-10-12T14:20:19.156Z,17.12
2022-10-12T14:22:52.353Z,16.90
2022-10-12T14:25:28.142Z,16.65
2022-10-12T14:28:03.760Z,16.64
2022-10-12T14:30:39.087Z,16.65
2022-10-12T14:33:26.038Z,16.77
2022-10-12T14:39:20.303Z,16.77
2022-10-12T14:41:54.700Z,16.58
2022-10-12T14:44:29.229Z,16.33
2022-10-12T14:47:06.340Z,16.33
2022-10-12T14:49:47.336Z,16.43
2022-10-12T14:52:23.433Z,16.41
2022-10-12T14:54:57.473Z,16.37
2022-10-12T14:57:32.046Z,16.35
2022-10-12T15:00:04.989Z,16.31
2022-10-12T15:02:40.517Z,16.20
2022-10-12T15:05:15.479Z,16.16
2022-10-12T15:07:48.148Z,16.16
2022-10-12T15:10:21.596Z,16.13
2022-10-12T15:12:53.961Z,16.07
2022-10-12T15:15:35.506Z,15.98
2022-10-12T15:18:09.155Z,15.89
2022-10-12T15:20:45.362Z,15.83
2022-10-12T15:23:21.193Z,15.68
2022-10-12T15:25:53.414Z,15.66
2022-10-12T15:28:27.777Z,15.59
2022-10-12T15:31:17.124Z,15.62
2022-10-12T15:33:49.489Z,15.56
2022-10-12T15:36:21.261Z,16.33
2022-10-12T15:38:53.007Z,15.97
2022-10-12T15:41:29.532Z,15.82
2022-10-12T15:44:01.761Z,15.67
2022-10-12T15:46:33.496Z,15.58
2022-10-12T15:49:05.216Z,15.53
2022-10-12T15:51:41.221Z,15.44
2022-10-12T15:54:13.650Z,15.40
2022-10-12T15:56:45.384Z,15.35
2022-10-12T15:59:17.331Z,15.27
2022-10-12T16:01:48.924Z,15.19
2022-10-12T16:04:22.603Z,15.11
2022-10-12T16:06:54.602Z,15.05
2022-10-12T16:09:26.944Z,14.99
2022-10-12T16:11:58.867Z,14.94
2022-10-12T16:14:31.533Z,14.86
2022-10-12T16:17:04.913Z,14.79
2022-10-12T16:19:34.994Z,14.69
2022-10-12T16:22:06.781Z,14.62
2022-10-12T16:24:39.653Z,14.56
2022-10-12T16:27:11.859Z,14.49
2022-10-12T16:29:43.938Z,14.46
2022-10-12T16:32:16.014Z,14.39
2022-10-12T16:34:48.314Z,14.32
2022-10-12T16:37:20.104Z,14.25
2022-10-12T16:39:53.495Z,14.20
2022-10-12T16:42:25.852Z,14.06
2022-10-12T16:44:57.735Z,14.04
2022-10-12T16:47:29.572Z,13.99
2022-10-12T16:50:01.693Z,13.90
2022-10-12T16:52:35.286Z,13.69
2022-10-12T16:55:08.509Z,13.66
2022-10-12T16:57:42.708Z,13.61
2022-10-12T17:00:19.125Z,13.45
2022-10-12T17:02:53.030Z,13.37
2022-10-12T17:05:29.166Z,13.31
2022-10-12T17:08:01.554Z,13.22
2022-10-12T17:10:33.465Z,13.20
2022-10-12T17:13:04.989Z,13.18
2022-10-12T17:15:39.510Z,13.10
2022-10-12T17:18:11.465Z,13.01
2022-10-12T17:20:43.454Z,13.00
2022-10-12T17:23:15.098Z,12.93
2022-10-12T17:25:46.823Z,12.90
2022-10-12T17:28:18.936Z,12.82
2022-10-12T17:30:51.121Z,12.82
2022-10-12T17:33:22.818Z,12.71
2022-10-12T17:35:54.449Z,12.67
2022-10-12T17:38:26.756Z,12.72
2022-10-12T17:40:58.921Z,12.65
2022-10-12T17:43:31.715Z,12.66
2022-10-12T17:46:08.394Z,12.64
2022-10-12T17:48:42.021Z,12.61
2022-10-12T17:51:16.213Z,12.61
2022-10-12T17:53:47.911Z,12.52
2022-10-12T17:56:20.027Z,12.41
2022-10-12T17:58:55.784Z,12.35
2022-10-12T18:01:28.746Z,12.31
2022-10-12T18:04:02.335Z,12.36
2022-10-12T18:06:35.624Z,12.37
2022-10-12T18:09:08.834Z,12.29
2022-10-12T18:11:44.340Z,12.18
2022-10-12T18:14:16.808Z,12.09
2022-10-12T18:16:49.596Z,12.20
2022-10-12T18:19:21.296Z,12.20
2022-10-12T18:21:53.419Z,12.20
2022-10-12T18:24:25.486Z,12.20
2022-10-12T18:26:58.476Z,12.20
2022-10-12T18:29:30.958Z,12.14
2022-10-12T18:32:06.696Z,12.09
2022-10-12T18:34:40.638Z,12.04
2022-10-12T18:37:13.075Z,11.98
2022-10-12T18:39:45.540Z,11.95
2022-10-12T18:42:18.273Z,11.85
2022-10-12T18:44:50.221Z,11.69
2022-10-12T18:47:24.605Z,11.80
2022-10-12T18:49:57.727Z,11.70
2022-10-12T18:52:27.924Z,11.67
2022-10-12T18:55:00.029Z,11.66
2022-10-12T18:57:35.344Z,11.78
2022-10-12T19:00:13.448Z,11.82
2022-10-12T19:02:45.426Z,11.72
2022-10-12T19:05:17.433Z,11.60
2022-10-12T19:07:50.278Z,11.60
2022-10-12T19:10:23.625Z,11.58
2022-10-12T19:12:56.647Z,11.55
2022-10-12T19:15:28.778Z,11.55
2022-10-12T19:18:00.617Z,11.59
2022-10-12T19:20:32.773Z,11.45
2022-10-12T19:23:04.611Z,11.49
2022-10-12T19:25:39.938Z,11.40
2022-10-12T19:28:13.469Z,11.41
2022-10-12T19:30:45.723Z,11.39
2022-10-12T19:33:18.957Z,11.39
2022-10-12T19:35:51.959Z,11.35
2022-10-12T19:38:24.781Z,11.31
2022-10-12T19:40:57.152Z,11.30
2022-10-12T19:43:29.301Z,11.23
2022-10-12T19:46:04.955Z,11.19
2022-10-12T19:48:37.849Z,11.14
2022-10-12T19:51:13.559Z,11.17
2022-10-12T19:53:45.766Z,11.20
2022-10-12T19:56:20.981Z,11.24
2022-10-12T19:58:56.640Z,11.13
2022-10-12T20:01:33.912Z,11.20
2022-10-12T20:04:09.887Z,11.14
2022-10-12T20:06:42.988Z,11.07
2022-10-12T20:09:16.078Z,10.93
2022-10-12T20:11:48.276Z,10.89
2022-10-12T20:14:20.587Z,10.93
2022-10-12T20:16:52.450Z,10.94
2022-10-12T20:19:24.325Z,10.99
2022-10-12T20:21:56.255Z,10.97
2022-10-12T20:24:28.321Z,11.00
2022-10-12T20:27:00.191Z,10.97
2022-10-12T20:29:32.371Z,10.98
2022-10-12T20:32:06.788Z,10.91
2022-10-12T20:34:38.664Z,10.74
2022-10-12T20:37:11.239Z,10.73
2022-10-12T20:39:43.873Z,10.70
2022-10-12T20:42:20.613Z,10.78
2022-10-12T20:44:53.603Z,10.70
2022-10-12T20:47:26.991Z,10.71
2022-10-12T20:49:58.865Z,10.63
2022-10-12T20:52:30.676Z,10.57
2022-10-12T20:55:03.541Z,10.47
2022-10-12T20:57:35.516Z,10.48
2022-10-12T21:00:10.458Z,10.53
2022-10-12T21:02:42.888Z,10.56
2022-10-12T21:05:14.645Z,10.46
2022-10-12T21:07:46.938Z,10.42
2022-10-12T21:10:18.925Z,10.47
2022-10-12T21:12:50.745Z,10.47
2022-10-12T21:15:22.488Z,10.51
2022-10-12T21:17:54.217Z,10.50
2022-10-12T21:20:27.004Z,10.56
2022-10-12T21:22:59.817Z,10.49
2022-10-12T21:25:30.081Z,10.52
2022-10-12T21:28:02.380Z,10.45
2022-10-12T21:30:34.106Z,10.47
2022-10-12T21:33:06.003Z,10.51
2022-10-12T21:35:37.927Z,10.45
2022-10-12T21:38:10.758Z,10.29
2022-10-12T21:40:42.451Z,10.28
2022-10-12T21:43:14.190Z,10.13
2022-10-12T21:45:46.025Z,10.05
2022-10-12T21:48:17.685Z,10.11
2022-10-12T21:50:49.338Z,10.17
2022-10-12T21:53:21.320Z,10.13
2022-10-12T21:55:54.004Z,10.04
2022-10-12T21:58:26.083Z,10.02
2022-10-12T22:01:08.824Z,9.86
2022-10-12T22:03:41.124Z,9.89
2022-10-12T22:06:16.996Z,9.98
2022-10-12T22:08:53.046Z,9.93
2022-10-12T22:11:27.209Z,9.77
2022-10-12T22:14:04.107Z,9.71
2022-10-12T22:16:38.724Z,9.73
2022-10-12T22:19:15.122Z,9.71
2022-10-12T22:21:47.589Z,9.84
2022-10-12T22:24:19.892Z,9.86
2022-10-12T22:26:52.345Z,9.90
2022-10-12T22:29:24.036Z,9.92
2022-10-12T22:31:55.849Z,9.93
2022-10-12T22:34:27.621Z,9.95
2022-10-12T22:37:01.099Z,9.92
2022-10-12T22:39:33.628Z,9.85
2022-10-12T22:42:06.524Z,9.86
2022-10-12T22:44:38.695Z,9.87
2022-10-12T22:47:11.925Z,9.88
2022-10-12T22:49:43.511Z,9.89
2022-10-12T22:52:15.186Z,9.83
2022-10-12T22:54:49.963Z,9.82
2022-10-12T22:57:22.747Z,9.79
2022-10-12T22:59:53.944Z,9.76
2022-10-12T23:02:26.329Z,9.74
2022-10-12T23:04:58.487Z,9.71
2022-10-12T23:07:31.109Z,9.65
2022-10-12T23:10:03.616Z,9.59
2022-10-12T23:12:36.133Z,9.63
2022-10-12T23:15:09.249Z,9.63
2022-10-12T23:17:40.804Z,9.52
2022-10-12T23:20:14.017Z,9.54
2022-10-12T23:22:45.923Z,9.49
2022-10-12T23:25:17.934Z,9.44
2022-10-12T23:27:51.005Z,9.45
2022-10-12T23:30:22.675Z,9.44
2022-10-12T23:32:54.761Z,9.44
2022-10-12T23:35:25.679Z,9.40
2022-10-12T23:37:59.284Z,9.38
2022-10-12T23:40:31.443Z,9.37
2022-10-12T23:43:03.051Z,9.32
2022-10-12T23:45:34.887Z,9.28
2022-10-12T23:48:07.392Z,9.17
2022-10-12T23:50:40.063Z,9.25
2022-10-12T23:53:12.446Z,9.30
2022-10-12T23:55:44.612Z,9.30
2022-10-12T23:58:16.558Z,9.21
